createdAt,value
2022-09-12T00:00:49.965Z,15.77
2022-09-12T00:03:40.621Z,14.48
2022-09-12T00:06:30.768Z,15.02
2022-09-12T00:09:18.774Z,13.57
2022-09-12T00:12:07.860Z,14.55
2022-09-12T00:14:56.292Z,13.50
2022-09-12T00:17:46.849Z,13.88
2022-09-12T00:20:44.188Z,13.75
2022-09-12T00:23:36.048Z,14.45
2022-09-12T00:26:27.617Z,14.45
2022-09-12T00:29:20.530Z,12.32
2022-09-12T00:32:11.614Z,13.15
2022-09-12T00:35:03.851Z,14.55
2022-09-12T00:37:56.395Z,13.07
2022-09-12T00:40:48.005Z,13.63
2022-09-12T00:43:42.434Z,15.20
2022-09-12T00:49:30.595Z,13.75
2022-09-12T00:52:25.622Z,12.55
2022-09-12T00:55:21.488Z,12.43
2022-09-12T00:58:16.381Z,13.10
2022-09-12T01:01:07.301Z,15.10
2022-09-12T01:03:58.403Z,14.63
2022-09-12T01:06:49.665Z,13.38
2022-09-12T01:09:39.710Z,14.30
2022-09-12T01:12:28.483Z,14.40
2022-09-12T01:15:15.830Z,13.25
2022-09-12T01:18:15.164Z,13.90
2022-09-12T01:21:16.241Z,14.32
2022-09-12T01:24:14.087Z,13.27
2022-09-12T01:27:18.324Z,13.95
2022-09-12T01:30:46.508Z,14.75
2022-09-12T01:33:46.995Z,13.95
2022-09-12T01:36:41.091Z,14.13
2022-09-12T01:39:36.319Z,12.38
2022-09-12T01:42:34.839Z,12.55
2022-09-12T01:45:31.160Z,13.75
2022-09-12T01:48:23.489Z,13.13
2022-09-12T01:51:18.781Z,12.82
2022-09-12T01:54:12.547Z,13.40
2022-09-12T01:57:15.668Z,13.63
2022-09-12T02:00:09.014Z,13.10
2022-09-12T02:03:03.473Z,13.35
2022-09-12T02:05:55.537Z,13.15
2022-09-12T02:08:48.250Z,13.20
2022-09-12T02:11:37.143Z,12.52
2022-09-12T02:14:26.314Z,12.80
2022-09-12T02:17:15.995Z,11.43
2022-09-12T02:20:08.036Z,12.07
2022-09-12T02:22:56.920Z,12.38
2022-09-12T02:25:46.409Z,13.10
2022-09-12T02:28:35.767Z,13.10
2022-09-12T02:31:24.639Z,12.60
2022-09-12T02:34:16.270Z,12.23
2022-09-12T02:37:08.616Z,12.65
2022-09-12T02:39:57.056Z,13.18
2022-09-12T02:42:44.525Z,11.95
2022-09-12T02:45:34.777Z,12.02
2022-09-12T02:48:24.853Z,12.77
2022-09-12T02:51:12.822Z,12.88
2022-09-12T02:54:02.317Z,12.18
2022-09-12T02:56:49.410Z,12.10
2022-09-12T02:59:36.573Z,12.43
2022-09-12T03:02:28.272Z,12.32
2022-09-12T03:05:22.680Z,11.88
2022-09-12T03:08:16.078Z,12.98
2022-09-12T03:11:11.434Z,12.13
2022-09-12T03:14:05.174Z,12.57
2022-09-12T03:16:58.737Z,11.30
2022-09-12T03:19:52.887Z,12.10
2022-09-12T03:22:48.152Z,11.77
2022-09-12T03:25:42.460Z,11.32
2022-09-12T03:28:33.402Z,12.70
2022-09-12T03:31:21.774Z,11.77
2022-09-12T03:34:13.375Z,11.65
2022-09-12T03:37:00.726Z,11.85
2022-09-12T03:39:48.093Z,10.93
2022-09-12T03:42:36.227Z,11.65
2022-09-12T03:45:25.357Z,12.00
2022-09-12T03:48:13.378Z,11.43
2022-09-12T03:51:04.615Z,12.05
2022-09-12T03:53:52.271Z,11.85
2022-09-12T03:56:39.251Z,11.75
2022-09-12T03:59:27.219Z,10.75
2022-09-12T04:02:15.974Z,11.60
2022-09-12T04:05:03.114Z,12.32
2022-09-12T04:07:50.120Z,12.32
2022-09-12T04:10:37.555Z,11.70
2022-09-12T04:13:25.366Z,12.05
2022-09-12T04:16:14.310Z,11.55
2022-09-12T04:19:03.054Z,10.32
2022-09-12T04:21:50.717Z,11.00
2022-09-12T04:24:38.696Z,11.20
2022-09-12T04:27:26.850Z,10.93
2022-09-12T04:30:14.127Z,10.57
2022-09-12T04:33:03.911Z,11.35
2022-09-12T04:35:56.583Z,10.65
2022-09-12T04:38:44.512Z,11.68
2022-09-12T04:41:33.179Z,11.23
2022-09-12T04:44:20.403Z,10.98
2022-09-12T04:47:08.107Z,10.52
2022-09-12T04:49:55.546Z,11.18
2022-09-12T04:52:45.212Z,10.07
2022-09-12T04:55:33.055Z,10.10
2022-09-12T04:58:20.119Z,11.15
2022-09-12T05:01:07.628Z,11.02
2022-09-12T05:03:55.967Z,10.57
2022-09-12T05:06:43.408Z,9.98
2022-09-12T05:09:32.032Z,11.02
2022-09-12T05:12:18.987Z,10.00
2022-09-12T05:15:06.443Z,9.80
2022-09-12T05:17:53.574Z,10.30
2022-09-12T05:20:41.248Z,10.90
2022-09-12T05:23:29.575Z,10.60
2022-09-12T05:26:19.495Z,10.38
2022-09-12T05:29:07.293Z,10.93
2022-09-12T05:31:55.233Z,10.68
2022-09-12T05:34:46.625Z,10.38
2022-09-12T05:37:38.291Z,10.45
2022-09-12T05:40:28.018Z,11.25
2022-09-12T05:43:16.711Z,10.52
2022-09-12T05:46:16.810Z,10.95
2022-09-12T05:49:21.486Z,10.52
2022-09-12T05:52:22.953Z,10.48
2022-09-12T05:55:15.479Z,10.52
2022-09-12T05:58:03.145Z,9.30
2022-09-12T06:01:00.545Z,11.90
2022-09-12T06:03:58.850Z,11.45
2022-09-12T06:06:49.459Z,11.18
2022-09-12T06:09:36.964Z,10.27
2022-09-12T06:12:24.279Z,11.02
2022-09-12T06:15:13.633Z,10.10
2022-09-12T06:18:05.344Z,11.43
2022-09-12T06:21:15.999Z,11.77
2022-09-12T06:24:13.737Z,11.35
2022-09-12T06:27:09.744Z,11.73
2022-09-12T06:29:59.675Z,10.77
2022-09-12T06:32:51.008Z,10.45
2022-09-12T06:35:40.745Z,11.63
2022-09-12T06:41:55.030Z,11.57
2022-09-12T06:44:42.482Z,12.10
2022-09-12T06:47:34.447Z,10.88
2022-09-12T06:50:26.000Z,12.50
2022-09-12T06:53:15.174Z,11.55
2022-09-12T06:56:03.883Z,12.25
2022-09-12T06:58:55.696Z,11.95
2022-09-12T07:01:46.038Z,12.40
2022-09-12T07:04:36.892Z,11.85
2022-09-12T07:07:27.073Z,12.43
2022-09-12T07:10:22.208Z,12.98
2022-09-12T07:13:11.990Z,13.80
2022-09-12T07:16:07.548Z,13.13
2022-09-12T07:18:55.519Z,13.43
2022-09-12T07:21:47.055Z,12.63
2022-09-12T07:24:35.429Z,13.63
2022-09-12T07:27:24.788Z,13.07
2022-09-12T07:30:12.250Z,13.20
2022-09-12T07:32:59.449Z,13.18
2022-09-12T07:35:46.718Z,12.77
2022-09-12T07:38:34.303Z,13.15
2022-09-12T07:41:23.316Z,13.38
2022-09-12T07:44:12.319Z,13.48
2022-09-12T07:46:59.886Z,13.13
2022-09-12T07:49:47.672Z,13.68
2022-09-12T07:52:34.844Z,13.13
2022-09-12T07:55:21.854Z,12.48
2022-09-12T07:58:09.198Z,12.93
2022-09-12T08:01:02.799Z,12.38
2022-09-12T08:03:52.247Z,12.55
2022-09-12T08:06:39.407Z,12.13
2022-09-12T08:09:26.907Z,13.00
2022-09-12T08:12:15.102Z,12.35
2022-09-12T08:15:02.303Z,12.32
2022-09-12T08:17:52.964Z,12.00
2022-09-12T08:20:40.085Z,13.98
2022-09-12T08:23:28.556Z,11.45
2022-09-12T08:26:16.469Z,11.45
2022-09-12T08:29:04.250Z,10.35
2022-09-12T08:31:55.228Z,10.68
2022-09-12T08:34:46.798Z,10.82
2022-09-12T08:37:34.242Z,11.43
2022-09-12T08:40:21.579Z,10.02
2022-09-12T08:43:18.443Z,9.38
2022-09-12T08:46:10.029Z,10.43
2022-09-12T08:48:59.308Z,9.15
2022-09-12T08:51:47.890Z,9.48
2022-09-12T08:54:35.077Z,8.45
2022-09-12T08:57:22.650Z,8.15
2022-09-12T09:00:14.507Z,8.32
2022-09-12T09:03:20.601Z,7.10
2022-09-12T09:06:13.476Z,7.50
2022-09-12T09:09:07.108Z,7.50
2022-09-12T09:11:59.770Z,6.72
2022-09-12T09:14:58.339Z,5.95
2022-09-12T09:17:46.927Z,6.38
2022-09-12T09:20:36.644Z,5.57
2022-09-12T09:23:27.083Z,6.18
2022-09-12T09:26:19.423Z,6.07
2022-09-12T09:29:09.914Z,5.68
2022-09-12T09:32:00.143Z,6.55
2022-09-12T09:34:48.620Z,5.82
2022-09-12T09:37:39.835Z,5.47
2022-09-12T09:40:29.740Z,4.80
2022-09-12T09:43:22.959Z,5.72
2022-09-12T09:46:12.000Z,5.63
2022-09-12T09:49:01.986Z,5.40
2022-09-12T09:51:49.378Z,6.63
2022-09-12T09:54:38.520Z,5.15
2022-09-12T09:57:43.279Z,5.05
2022-09-12T10:00:33.883Z,5.68
2022-09-12T10:03:28.431Z,5.32
2022-09-12T10:06:24.223Z,5.40
2022-09-12T10:09:22.473Z,4.95
2022-09-12T10:12:21.565Z,5.00
2022-09-12T10:15:18.630Z,5.20
2022-09-12T10:18:07.281Z,5.32
2022-09-12T10:20:54.338Z,5.30
2022-09-12T10:23:42.057Z,5.13
2022-09-12T10:26:33.261Z,5.53
2022-09-12T10:29:23.411Z,5.55
2022-09-12T10:32:12.708Z,5.88
2022-09-12T10:35:03.215Z,5.05
2022-09-12T10:37:55.287Z,5.38
2022-09-12T10:40:44.478Z,4.72
2022-09-12T10:43:36.196Z,4.60
2022-09-12T10:46:30.423Z,5.45
2022-09-12T10:52:19.951Z,5.13
2022-09-12T10:55:11.432Z,5.10
2022-09-12T10:58:05.325Z,4.75
2022-09-12T11:01:00.049Z,4.72
2022-09-12T11:03:54.788Z,4.78
2022-09-12T11:06:47.190Z,4.70
2022-09-12T11:09:38.693Z,4.88
2022-09-12T11:12:30.614Z,4.80
2022-09-12T11:15:29.431Z,4.72
2022-09-12T11:18:24.187Z,4.95
2022-09-12T11:21:17.437Z,5.05
2022-09-12T11:24:16.889Z,4.50
2022-09-12T11:27:13.382Z,4.70
2022-09-12T11:30:03.284Z,4.35
2022-09-12T11:33:00.189Z,3.90
2022-09-12T11:35:54.938Z,3.90
2022-09-12T11:38:48.468Z,3.90
2022-09-12T11:41:37.587Z,4.40
2022-09-12T11:44:29.738Z,4.07
2022-09-12T11:47:18.688Z,4.65
2022-09-12T11:50:08.115Z,4.10
2022-09-12T11:52:56.247Z,4.60
2022-09-12T11:55:48.861Z,4.95
2022-09-12T11:58:37.147Z,4.30
2022-09-12T12:01:27.431Z,4.13
2022-09-12T12:04:17.551Z,3.47
2022-09-12T12:07:06.634Z,4.22
2022-09-12T12:09:55.731Z,4.18
2022-09-12T12:12:43.228Z,3.75
2022-09-12T12:15:30.834Z,4.15
2022-09-12T12:18:20.550Z,4.72
2022-09-12T12:21:22.201Z,4.28
2022-09-12T12:24:14.730Z,4.28
2022-09-12T12:27:02.629Z,4.20
2022-09-12T12:29:49.495Z,4.13
2022-09-12T12:32:36.410Z,4.70
2022-09-12T12:35:41.373Z,3.78
2022-09-12T12:38:30.191Z,4.65
2022-09-12T12:41:35.914Z,4.43
2022-09-12T12:44:41.886Z,4.40
2022-09-12T12:47:33.188Z,4.40
2022-09-12T12:50:26.543Z,3.72
2022-09-12T12:53:21.358Z,4.07
2022-09-12T12:56:26.623Z,4.18
2022-09-12T12:59:15.542Z,4.30
2022-09-12T13:02:03.144Z,4.30
2022-09-12T13:04:51.335Z,4.55
2022-09-12T13:07:40.164Z,4.03
2022-09-12T13:10:30.936Z,4.10
2022-09-12T13:13:21.719Z,3.88
2022-09-12T13:16:10.457Z,3.88
2022-09-12T13:18:58.479Z,3.72
2022-09-12T13:21:56.701Z,4.25
2022-09-12T13:24:46.127Z,3.90
2022-09-12T13:27:35.078Z,3.90
2022-09-12T13:30:23.618Z,3.80
2022-09-12T13:33:13.021Z,3.92
2022-09-12T13:36:10.214Z,3.60
2022-09-12T13:39:03.703Z,3.90
2022-09-12T13:42:08.940Z,3.75
2022-09-12T13:44:59.316Z,3.67
2022-09-12T13:47:46.714Z,3.50
2022-09-12T13:50:38.299Z,3.28
2022-09-12T13:53:28.155Z,3.85
2022-09-12T13:56:17.779Z,3.83
2022-09-12T13:59:12.778Z,3.55
2022-09-12T14:02:01.861Z,3.60
2022-09-12T14:05:06.383Z,3.55
2022-09-12T14:07:56.366Z,3.05
2022-09-12T14:10:45.975Z,3.53
2022-09-12T14:13:33.644Z,3.30
2022-09-12T14:16:23.444Z,3.42
2022-09-12T14:19:16.350Z,3.28
2022-09-12T14:22:04.012Z,3.45
2022-09-12T14:24:52.435Z,3.50
2022-09-12T14:27:45.770Z,3.45
2022-09-12T14:30:34.926Z,4.30
2022-09-12T14:33:22.936Z,3.70
2022-09-12T14:36:13.769Z,3.75
2022-09-12T14:39:02.584Z,4.00
2022-09-12T14:41:51.701Z,3.38
2022-09-12T14:44:39.549Z,3.20
2022-09-12T14:47:28.578Z,3.65
2022-09-12T14:50:19.845Z,3.95
2022-09-12T14:53:21.734Z,3.38
2022-09-12T14:56:10.208Z,3.38
2022-09-12T14:59:17.995Z,2.80
2022-09-12T15:02:23.165Z,3.60
2022-09-12T15:05:18.973Z,3.88
2022-09-12T15:08:06.671Z,3.72
2022-09-12T15:10:56.193Z,3.90
2022-09-12T15:13:43.874Z,4.10
2022-09-12T15:16:31.579Z,3.35
2022-09-12T15:19:19.016Z,3.60
2022-09-12T15:22:06.410Z,3.40
2022-09-12T15:24:53.956Z,3.05
2022-09-12T15:27:43.483Z,3.30
2022-09-12T15:30:31.576Z,3.03
2022-09-12T15:33:20.342Z,3.10
2022-09-12T15:36:13.899Z,3.22
2022-09-12T15:41:48.878Z,3.60
2022-09-12T15:44:37.828Z,3.03
2022-09-12T15:47:25.040Z,3.38
2022-09-12T15:50:13.622Z,3.80
2022-09-12T15:53:00.939Z,3.38
2022-09-12T15:55:48.774Z,2.97
2022-09-12T15:58:42.743Z,3.30
2022-09-12T16:01:39.339Z,3.60
2022-09-12T16:04:26.861Z,2.95
2022-09-12T16:07:13.915Z,3.70
2022-09-12T16:10:01.003Z,3.10
2022-09-12T16:12:48.345Z,3.28
2022-09-12T16:15:36.487Z,3.08
2022-09-12T16:18:25.822Z,3.17
2022-09-12T16:21:15.866Z,3.10
2022-09-12T16:24:04.018Z,3.00
2022-09-12T16:26:51.807Z,3.33
2022-09-12T16:29:38.746Z,3.65
2022-09-12T16:32:26.345Z,3.88
2022-09-12T16:35:15.292Z,3.35
2022-09-12T16:38:02.749Z,3.50
2022-09-12T16:40:50.599Z,3.55
2022-09-12T16:43:39.386Z,3.63
2022-09-12T16:46:28.655Z,3.50
2022-09-12T16:49:16.640Z,3.60
2022-09-12T16:52:06.429Z,3.70
2022-09-12T16:54:54.318Z,3.85
2022-09-12T16:57:42.518Z,3.67
2022-09-12T17:00:30.482Z,3.70
2022-09-12T17:03:17.986Z,4.47
2022-09-12T17:06:08.382Z,3.70
2022-09-12T17:09:01.036Z,4.50
2022-09-12T17:11:49.722Z,4.13
2022-09-12T17:14:37.156Z,3.92
2022-09-12T17:17:25.195Z,4.00
2022-09-12T17:20:13.176Z,4.30
2022-09-12T17:23:00.464Z,4.50
2022-09-12T17:25:51.930Z,4.35
2022-09-12T17:28:39.680Z,4.63
2022-09-12T17:31:28.051Z,5.13
2022-09-12T17:34:16.429Z,4.57
2022-09-12T17:37:06.147Z,4.47
2022-09-12T17:39:54.027Z,4.70
2022-09-12T17:42:43.820Z,4.50
2022-09-12T17:45:32.292Z,5.05
2022-09-12T17:48:20.485Z,5.20
2022-09-12T17:51:08.378Z,4.90
2022-09-12T17:54:01.321Z,4.80
2022-09-12T17:56:51.578Z,4.60
2022-09-12T17:59:43.152Z,5.30
2022-09-12T18:02:33.061Z,4.68
2022-09-12T18:05:20.955Z,4.80
2022-09-12T18:08:08.815Z,4.53
2022-09-12T18:11:04.834Z,4.40
2022-09-12T18:13:52.452Z,4.90
2022-09-12T18:16:41.305Z,5.20
2022-09-12T18:19:29.499Z,4.45
2022-09-12T18:22:17.588Z,4.68
2022-09-12T18:25:05.168Z,4.93
2022-09-12T18:27:53.822Z,4.88
2022-09-12T18:30:43.156Z,5.03
2022-09-12T18:33:33.243Z,4.97
2022-09-12T18:36:22.474Z,5.13
2022-09-12T18:39:09.976Z,5.35
2022-09-12T18:41:57.935Z,4.70
2022-09-12T18:44:45.616Z,5.28
2022-09-12T18:47:33.006Z,5.22
2022-09-12T18:50:23.290Z,5.00
2022-09-12T18:53:11.343Z,5.15
2022-09-12T18:56:01.151Z,4.93
2022-09-12T18:58:51.097Z,5.00
2022-09-12T19:01:39.265Z,5.38
2022-09-12T19:04:26.762Z,4.50
2022-09-12T19:07:17.092Z,4.88
2022-09-12T19:10:05.399Z,4.45
2022-09-12T19:12:53.266Z,4.82
2022-09-12T19:15:41.704Z,4.75
2022-09-12T19:18:31.218Z,4.45
2022-09-12T19:21:22.594Z,4.35
2022-09-12T19:24:11.899Z,4.30
2022-09-12T19:27:00.791Z,4.40
2022-09-12T19:29:48.817Z,4.53
2022-09-12T19:32:37.599Z,4.38
2022-09-12T19:35:24.820Z,4.60
2022-09-12T19:38:13.511Z,4.97
2022-09-12T19:41:02.735Z,4.00
2022-09-12T19:43:50.736Z,4.65
2022-09-12T19:46:38.527Z,3.95
2022-09-12T19:49:25.547Z,4.35
2022-09-12T19:52:17.493Z,4.18
2022-09-12T19:55:04.811Z,4.30
2022-09-12T19:57:54.986Z,4.78
2022-09-12T20:00:42.105Z,4.40
2022-09-12T20:03:29.294Z,4.65
2022-09-12T20:06:17.881Z,4.53
2022-09-12T20:09:06.902Z,4.82
2022-09-12T20:11:54.060Z,4.35
2022-09-12T20:14:44.347Z,5.18
2022-09-12T20:17:35.262Z,4.43
2022-09-12T20:20:22.975Z,4.63
2022-09-12T20:23:10.922Z,3.92
2022-09-12T20:26:01.926Z,4.85
2022-09-12T20:28:49.726Z,5.18
2022-09-12T20:31:39.518Z,5.20
2022-09-12T20:34:27.189Z,4.95
2022-09-12T20:37:15.180Z,5.38
2022-09-12T20:40:08.435Z,4.60
2022-09-12T20:42:57.598Z,5.13
2022-09-12T20:45:48.524Z,4.72
2022-09-12T20:48:39.934Z,4.57
2022-09-12T20:51:29.956Z,5.15
2022-09-12T20:54:17.674Z,4.45
2022-09-12T20:57:05.481Z,4.32
2022-09-12T20:59:53.324Z,4.15
2022-09-12T21:02:41.176Z,4.65
2022-09-12T21:05:31.087Z,4.70
2022-09-12T21:08:19.413Z,4.88
2022-09-12T21:11:11.333Z,4.38
2022-09-12T21:13:59.376Z,5.00
2022-09-12T21:16:46.960Z,4.45
2022-09-12T21:19:34.906Z,4.97
2022-09-12T21:22:24.558Z,4.68
2022-09-12T21:25:12.175Z,4.50
2022-09-12T21:28:02.732Z,4.40
2022-09-12T21:30:50.978Z,4.70
2022-09-12T21:33:38.192Z,4.40
2022-09-12T21:36:25.778Z,4.80
2022-09-12T21:39:14.955Z,4.57
2022-09-12T21:42:02.515Z,4.32
2022-09-12T21:44:53.364Z,4.00
2022-09-12T21:47:41.063Z,4.53
2022-09-12T21:50:28.997Z,4.22
2022-09-12T21:53:16.927Z,4.03
2022-09-12T21:56:09.542Z,4.45
2022-09-12T21:58:56.979Z,5.13
2022-09-12T22:01:44.561Z,4.43
2022-09-12T22:04:33.195Z,4.55
2022-09-12T22:07:20.997Z,4.25
2022-09-12T22:10:08.944Z,4.10
2022-09-12T22:12:58.083Z,4.60
2022-09-12T22:15:46.048Z,3.85
2022-09-12T22:18:33.779Z,4.70
2022-09-12T22:21:22.503Z,4.55
2022-09-12T22:24:27.508Z,4.35
2022-09-12T22:27:14.815Z,4.22
2022-09-12T22:30:03.974Z,4.22
2022-09-12T22:32:51.906Z,4.30
2022-09-12T22:35:43.166Z,4.03
2022-09-12T22:38:31.374Z,4.00
2022-09-12T22:41:18.818Z,4.20
2022-09-12T22:44:10.194Z,3.92
2022-09-12T22:46:59.284Z,4.03
2022-09-12T22:49:48.151Z,4.10
2022-09-12T22:52:35.994Z,3.95
2022-09-12T22:55:23.382Z,3.92
2022-09-12T22:58:10.667Z,3.83
2022-09-12T23:00:58.361Z,4.70
2022-09-12T23:03:47.076Z,4.07
2022-09-12T23:06:34.655Z,4.05
2022-09-12T23:09:22.625Z,4.10
2022-09-12T23:12:10.371Z,4.15
2022-09-12T23:14:57.559Z,3.92
2022-09-12T23:17:44.926Z,4.15
2022-09-12T23:20:33.754Z,4.32
2022-09-12T23:23:21.311Z,3.72
2022-09-12T23:26:11.028Z,4.50
2022-09-12T23:28:59.185Z,4.35
2022-09-12T23:31:47.245Z,4.63
2022-09-12T23:34:34.764Z,4.13
2022-09-12T23:37:23.278Z,4.32
2022-09-12T23:40:11.273Z,4.78
2022-09-12T23:42:58.484Z,3.75
2022-09-12T23:45:46.207Z,4.15
2022-09-12T23:48:34.687Z,4.40
2022-09-12T23:51:23.592Z,4.25
2022-09-12T23:54:12.867Z,4.10
2022-09-12T23:57:00.552Z,3.33
2022-09-12T23:59:49.066Z,3.95
